Flight Track Log - Related Links

Times and Time Zones

All times are in EST time to prevent confusion due to time zone crossing. See the N2509W flight status page for this flight to view local times or setup timezone preferences in your user account.

Time Position Orientation Groundspeed Altitude Reporting Facility
EST Latitude Longitude Course Direction KTS MPH feet Rate Location/Type
Thu 05:44:28 PM 40.7189 -82.7022 84° East 204 235 7,500  Level Cleveland Center
Thu 05:45:00 PM 40.8474 -82.2302 90° East  Level Estimated
Thu 05:45:30 PM 40.7317 -82.6281 77° East 206 237 7,500  Level Cleveland Center
Thu 05:46:00 PM 40.8497 -82.1822 86° East  Level FlightAware Approximate
Thu 05:46:33 PM 40.7425 -82.5547 79° East 203 234 7,500  Level Cleveland Center
Thu 05:47:00 PM 40.8520 -82.1342 86° East  Level FlightAware Approximate
Thu 05:47:35 PM 40.7561 -82.4675 78° East 205 236 7,500  Level Cleveland Center
Thu 05:48:00 PM 40.8565 -82.0864 78° East  Level Estimated
Thu 05:48:37 PM 40.7678 -82.3944 78° East 203 234 7,400  Level Cleveland Center
Thu 05:49:00 PM 40.8601 -82.0386 84° East  Level FlightAware Approximate
Thu 05:49:39 PM 40.7800 -82.3169 78° East 214 246 7,000  Level Cleveland Center
Thu 05:50:41 PM 40.7928 -82.2369 78° East 219 252 6,500 -484 Descending Cleveland Center
Thu 05:51:43 PM 40.8053 -82.1583 78° East 219 252 6,000 -484 Descending Cleveland Center
Thu 05:52:45 PM 40.8167 -82.0822 79° East 213 245 5,500 -484 Descending Cleveland Center
Thu 05:53:47 PM 40.8289 -82.0047 78° East 214 246 5,000 -532 Descending Cleveland Center
Thu 05:54:49 PM 40.8428 -81.9156 78° East 212 244 4,400 -532 Descending Cleveland Center
Thu 05:55:51 PM 40.8544 -81.8397 78° East 211 243 3,900 -484 Descending Cleveland Center
Thu 05:56:53 PM 40.8669 -81.7636 78° East 211 243 3,400 -480 Descending Cleveland Center
Thu 05:57:56 PM 40.8908 -81.6919 66° East 214 246 2,900 -384 Descending Cleveland Center
Thu 05:58:58 PM 40.9175 -81.6275 61° Northeast 206 237 2,600 -145 Descending Cleveland Center
Thu 06:00:00 PM 40.9428 -81.5686 60° Northeast 195 224 2,600  Level Cleveland Center
Thu 06:01:02 PM 40.9692 -81.5058 61° Northeast 177 204 2,600 -97 Level Cleveland Center
Thu 06:02:04 PM 40.9767 -81.4508 80° East 167 192 2,400 -387 Descending Cleveland Center
Thu 06:03:06 PM 40.9558 -81.4375 154° Southeast 116 133 1,800 -387 Descending Cleveland Center
Thu 06:04:08 PM 40.9383 -81.4389 183° South 80 92 1,600 -194 Descending Cleveland Center
Thu 06:05:10 PM 40.9189 -81.4392 181° South 73 84 1,400 -194 Descending Cleveland Center

Login

Don't have an account? Register now (free) for customized features, flight alerts, and more!